createdAt,value
2023-04-26T00:02:24.954Z,93099.28
2023-04-26T00:07:30.868Z,93101.31
2023-04-26T00:12:34.551Z,93084.91
2023-04-26T00:17:38.213Z,93091.13
2023-04-26T00:22:42.024Z,93092.72
2023-04-26T00:27:45.767Z,93086.06
2023-04-26T00:32:49.948Z,93084.50
2023-04-26T00:37:53.090Z,93085.66
2023-04-26T00:43:00.056Z,93066.56
2023-04-26T00:48:04.688Z,93057.97
2023-04-26T00:53:09.709Z,93056.06
2023-04-26T00:58:13.905Z,93034.56
2023-04-26T01:03:18.380Z,93046.31
2023-04-26T01:08:23.838Z,93045.13
2023-04-26T01:13:28.132Z,93052.88
2023-04-26T01:18:31.742Z,93046.94
2023-04-26T01:23:35.276Z,93049.69
2023-04-26T01:28:39.295Z,93028.16
2023-04-26T01:33:42.627Z,93032.41
2023-04-26T01:38:46.248Z,93048.00
2023-04-26T01:43:50.408Z,93040.47
2023-04-26T01:48:55.720Z,93036.41
2023-04-26T01:53:59.461Z,93017.00
2023-04-26T01:59:03.024Z,93016.16
2023-04-26T02:04:07.057Z,93024.47
2023-04-26T02:09:11.660Z,93026.94
2023-04-26T02:14:17.116Z,93037.16
2023-04-26T02:19:21.309Z,93030.94
2023-04-26T02:24:26.375Z,93020.44
2023-04-26T02:29:43.572Z,93034.63
2023-04-26T02:34:48.110Z,93000.78
2023-04-26T02:39:52.733Z,93023.84
2023-04-26T02:44:56.108Z,93025.09
2023-04-26T02:50:00.581Z,93026.31
2023-04-26T02:55:06.742Z,93016.94
2023-04-26T03:00:10.877Z,93019.66
2023-04-26T03:05:14.876Z,93008.78
2023-04-26T03:10:18.535Z,93012.28
2023-04-26T03:15:24.918Z,93020.13
2023-04-26T03:20:28.711Z,93012.69
2023-04-26T03:25:34.415Z,93015.72
2023-04-26T03:30:38.782Z,93010.16
2023-04-26T03:35:42.622Z,93012.59
2023-04-26T03:40:46.425Z,92997.78
2023-04-26T03:45:50.836Z,93001.38
2023-04-26T03:50:55.501Z,93002.91
2023-04-26T03:55:59.012Z,92999.44
2023-04-26T04:01:02.630Z,93008.84
2023-04-26T04:06:06.939Z,93024.88
2023-04-26T04:11:09.981Z,93026.44
2023-04-26T04:16:15.410Z,93040.50
2023-04-26T04:21:18.514Z,93046.34
2023-04-26T04:26:22.420Z,93054.53
2023-04-26T04:31:26.182Z,93045.91
2023-04-26T04:36:31.273Z,93051.78
2023-04-26T04:41:35.384Z,93049.38
2023-04-26T04:46:39.399Z,93054.06
2023-04-26T04:51:43.001Z,93043.38
2023-04-26T04:56:47.696Z,93055.47
2023-04-26T05:01:52.762Z,93060.56
2023-04-26T05:06:56.302Z,93068.69
2023-04-26T05:12:01.369Z,93064.72
2023-04-26T05:17:04.901Z,93072.03
2023-04-26T05:22:09.376Z,93064.03
2023-04-26T05:27:12.824Z,93071.84
2023-04-26T05:32:30.901Z,93061.00
2023-04-26T05:38:04.204Z,93078.31
2023-04-26T05:43:07.967Z,93093.75
2023-04-26T05:48:13.764Z,93073.88
2023-04-26T05:53:17.870Z,93067.63
2023-04-26T05:58:21.068Z,93082.81
2023-04-26T06:03:25.805Z,93096.75
2023-04-26T06:08:32.409Z,93086.47
2023-04-26T06:13:36.193Z,93076.63
2023-04-26T06:18:39.876Z,93082.84
2023-04-26T06:23:43.899Z,93089.91
2023-04-26T06:28:47.672Z,93068.94
2023-04-26T06:33:51.447Z,93083.19
2023-04-26T06:38:55.048Z,93075.81
2023-04-26T06:43:58.945Z,93091.69
2023-04-26T06:49:08.207Z,93096.81
2023-04-26T06:54:13.538Z,93086.75
2023-04-26T06:59:17.566Z,93082.31
2023-04-26T07:04:22.106Z,93086.59
2023-04-26T07:09:26.360Z,93086.56
2023-04-26T07:14:30.568Z,93067.22
2023-04-26T07:19:33.885Z,93096.94
2023-04-26T07:24:37.387Z,93109.19
2023-04-26T07:29:40.560Z,93107.91
2023-04-26T07:34:44.529Z,93102.31
2023-04-26T07:39:48.110Z,93095.22
2023-04-26T07:44:52.004Z,93096.00
2023-04-26T07:49:55.517Z,93107.16
2023-04-26T07:54:59.134Z,93116.00
2023-04-26T08:00:03.797Z,93110.47
2023-04-26T08:05:16.758Z,93123.50
2023-04-26T08:10:20.583Z,93134.41
2023-04-26T08:15:24.202Z,93121.41
2023-04-26T08:20:27.556Z,93136.63
2023-04-26T08:25:31.110Z,93140.34
2023-04-26T08:30:34.886Z,93143.09
2023-04-26T08:35:38.850Z,93143.47
2023-04-26T08:40:44.505Z,93157.28
2023-04-26T08:45:48.042Z,93153.06
2023-04-26T08:50:52.897Z,93158.38
2023-04-26T08:55:56.425Z,93157.19
2023-04-26T09:01:02.617Z,93162.09
2023-04-26T09:06:07.585Z,93168.22
2023-04-26T09:11:11.875Z,93164.22
2023-04-26T09:16:15.692Z,93166.34
2023-04-26T09:21:20.640Z,93152.31
2023-04-26T09:26:23.757Z,93174.41
2023-04-26T09:31:39.349Z,93166.84
2023-04-26T09:36:53.937Z,93169.56
2023-04-26T09:41:58.357Z,93176.44
2023-04-26T09:47:07.599Z,93185.75
2023-04-26T09:52:11.052Z,93171.59
2023-04-26T09:57:16.976Z,93183.97
2023-04-26T10:02:22.802Z,93178.28
2023-04-26T10:07:26.751Z,93167.06
2023-04-26T10:12:30.313Z,93145.69
2023-04-26T10:17:34.299Z,93160.91
2023-04-26T10:22:45.745Z,93169.97
2023-04-26T10:27:50.370Z,93163.84
2023-04-26T10:32:57.746Z,93168.44
2023-04-26T10:38:01.587Z,93167.66
2023-04-26T10:43:14.074Z,93164.66
2023-04-26T10:48:23.714Z,93173.47
2023-04-26T10:53:30.524Z,93165.69
2023-04-26T10:58:36.046Z,93171.13
2023-04-26T11:03:39.598Z,93163.94
2023-04-26T11:08:43.598Z,93174.16
2023-04-26T11:13:47.546Z,93181.22
2023-04-26T11:18:56.314Z,93179.03
2023-04-26T11:23:59.817Z,93182.91
2023-04-26T11:29:03.770Z,93189.88
2023-04-26T11:34:06.975Z,93182.72
2023-04-26T11:39:13.086Z,93186.00
2023-04-26T11:44:21.794Z,93173.78
2023-04-26T11:49:25.754Z,93172.53
2023-04-26T11:54:34.340Z,93168.09
2023-04-26T11:59:38.356Z,93159.25
2023-04-26T12:04:42.236Z,93163.34
2023-04-26T12:09:46.482Z,93171.16
2023-04-26T12:14:58.535Z,93174.97
2023-04-26T12:20:10.308Z,93177.09
2023-04-26T12:25:14.351Z,93190.19
2023-04-26T12:30:18.202Z,93184.63
2023-04-26T12:35:21.816Z,93177.28
2023-04-26T12:40:24.929Z,93182.13
2023-04-26T12:45:28.310Z,93183.41
2023-04-26T12:50:31.878Z,93184.84
2023-04-26T12:55:35.868Z,93172.00
2023-04-26T13:00:39.083Z,93186.31
2023-04-26T13:05:43.286Z,93179.50
2023-04-26T13:10:47.527Z,93173.13
2023-04-26T13:15:52.261Z,93166.44
2023-04-26T13:20:55.412Z,93173.50
2023-04-26T13:25:58.939Z,93169.88
2023-04-26T13:31:02.869Z,93171.72
2023-04-26T13:36:06.703Z,93171.00
2023-04-26T13:41:12.233Z,93178.25
2023-04-26T13:46:16.114Z,93181.53
2023-04-26T13:51:19.344Z,93175.81
2023-04-26T13:56:26.110Z,93171.47
2023-04-26T14:01:31.122Z,93173.50
2023-04-26T14:06:34.544Z,93150.75
2023-04-26T14:11:38.667Z,93191.56
2023-04-26T14:16:42.928Z,93182.22
2023-04-26T14:21:46.552Z,93195.97
2023-04-26T14:26:50.274Z,93188.16
2023-04-26T14:31:53.439Z,93194.09
2023-04-26T14:37:01.824Z,93197.72
2023-04-26T14:42:05.583Z,93188.63
2023-04-26T14:47:09.429Z,93200.59
2023-04-26T14:52:15.649Z,93202.22
2023-04-26T14:57:19.764Z,93201.91
2023-04-26T15:02:23.996Z,93190.19
2023-04-26T15:07:32.611Z,93215.59
2023-04-26T15:12:37.339Z,93218.88
2023-04-26T15:17:40.739Z,93211.84
2023-04-26T15:22:44.323Z,93217.69
2023-04-26T15:27:50.529Z,93218.56
2023-04-26T15:32:54.521Z,93223.13
2023-04-26T15:37:58.279Z,93224.53
2023-04-26T15:43:01.594Z,93221.94
2023-04-26T15:48:05.453Z,93224.25
2023-04-26T15:53:09.445Z,93236.13
2023-04-26T15:58:13.016Z,93236.56
2023-04-26T16:03:17.209Z,93248.84
2023-04-26T16:08:39.536Z,93249.53
2023-04-26T16:13:44.871Z,93258.38
2023-04-26T16:18:48.212Z,93231.97
2023-04-26T16:23:52.148Z,93265.06
2023-04-26T16:28:55.638Z,93263.56
2023-04-26T16:33:59.571Z,93276.13
2023-04-26T16:39:02.885Z,93283.16
2023-04-26T16:44:06.459Z,93292.50
2023-04-26T16:49:10.713Z,93289.03
2023-04-26T16:54:14.450Z,93319.31
2023-04-26T16:59:18.296Z,93325.41
2023-04-26T17:04:21.775Z,93342.66
2023-04-26T17:09:27.118Z,93352.00
2023-04-26T17:14:31.430Z,93357.84
2023-04-26T17:19:34.614Z,93376.72
2023-04-26T17:24:38.311Z,93369.16
2023-04-26T17:29:41.784Z,93382.63
2023-04-26T17:34:45.869Z,93376.94
2023-04-26T17:39:49.830Z,93386.09
2023-04-26T17:44:52.932Z,93397.13
2023-04-26T17:49:56.069Z,93386.63
2023-04-26T17:54:59.459Z,93393.72
2023-04-26T18:00:04.191Z,93405.88
2023-04-26T18:05:10.972Z,93407.47
2023-04-26T18:10:14.604Z,93418.44
2023-04-26T18:15:19.109Z,93422.38
2023-04-26T18:20:22.605Z,93423.16
2023-04-26T18:25:26.314Z,93415.75
2023-04-26T18:30:29.951Z,93425.50
2023-04-26T18:35:33.829Z,93427.47
2023-04-26T18:40:37.998Z,93439.19
2023-04-26T18:45:41.936Z,93434.13
2023-04-26T18:50:55.188Z,93441.94
2023-04-26T18:55:58.889Z,93435.69
2023-04-26T19:01:02.972Z,93452.91
2023-04-26T19:06:14.917Z,93455.22
2023-04-26T19:11:18.309Z,93448.97
2023-04-26T19:16:22.457Z,93465.00
2023-04-26T19:21:25.701Z,93464.59
2023-04-26T19:26:29.232Z,93463.41
2023-04-26T19:31:33.029Z,93471.22
2023-04-26T19:36:36.749Z,93473.13
2023-04-26T19:41:40.396Z,93486.41
2023-04-26T19:46:44.371Z,93492.25
2023-04-26T19:51:48.518Z,93508.25
2023-04-26T19:56:52.631Z,93503.59
2023-04-26T20:01:56.235Z,93500.44
2023-04-26T20:07:01.804Z,93512.59
2023-04-26T20:12:08.198Z,93519.56
2023-04-26T20:17:12.653Z,93514.13
2023-04-26T20:22:17.179Z,93523.84
2023-04-26T20:27:21.974Z,93522.69
2023-04-26T20:32:27.536Z,93530.13
2023-04-26T20:37:31.187Z,93532.09
2023-04-26T20:42:35.289Z,93534.09
2023-04-26T20:47:38.892Z,93534.53
2023-04-26T20:52:42.432Z,93531.44
2023-04-26T20:57:46.070Z,93538.09
2023-04-26T21:02:49.912Z,93537.69
2023-04-26T21:07:54.262Z,93539.22
2023-04-26T21:12:57.992Z,93532.59
2023-04-26T21:18:02.045Z,93525.19
2023-04-26T21:23:05.678Z,93534.97
2023-04-26T21:28:09.010Z,93532.94
2023-04-26T21:33:13.395Z,93532.09
2023-04-26T21:38:17.159Z,93526.94
2023-04-26T21:43:21.999Z,93535.47
2023-04-26T21:48:26.853Z,93552.69
2023-04-26T21:53:29.995Z,93542.56
2023-04-26T21:58:33.289Z,93529.28
2023-04-26T22:03:37.955Z,93540.28
2023-04-26T22:08:41.587Z,93547.34
2023-04-26T22:13:45.397Z,93539.53
2023-04-26T22:18:49.197Z,93553.25
2023-04-26T22:23:54.947Z,93565.38
2023-04-26T22:28:59.467Z,93568.50
2023-04-26T22:34:03.033Z,93557.56
2023-04-26T22:39:07.039Z,93571.66
2023-04-26T22:44:10.230Z,93566.63
2023-04-26T22:49:13.765Z,93550.19
2023-04-26T22:54:16.996Z,93567.03
2023-04-26T22:59:20.479Z,93570.16
2023-04-26T23:04:24.491Z,93569.72
2023-04-26T23:09:33.875Z,93555.19
2023-04-26T23:14:37.959Z,93563.25
2023-04-26T23:19:41.127Z,93566.91
2023-04-26T23:24:44.513Z,93551.19
2023-04-26T23:29:48.121Z,93548.88
2023-04-26T23:34:51.358Z,93550.84
2023-04-26T23:39:55.080Z,93548.09
2023-04-26T23:44:58.157Z,93551.94
2023-04-26T23:50:02.285Z,93558.06
2023-04-26T23:55:06.955Z,93551.47
